HTN weather

Hotel Tecnoparque Helipad
Azcapotzalco, Ciudad de México, Mexico

Public forecast

Using degrees Celsius for public forecast. Weather courtesy of forecast.io.

Closest aviation weather report (METAR) to Hotel Tecnoparque Helipad

Closest report is Licenciado Benito Juarez International Airport, 7.4 nm (13.6 km) SE. Retrieved 2019/12/12 04:45 UTC (59 minutes ago):

MMMX 120445Z 32004KT 8SM BKN220 13/06 A3045 NOSIG RMK 8/002 HZY

Closest aviation forecast (TAF) to Hotel Tecnoparque Helipad

Closest forecast is Licenciado Benito Juarez International Airport, 7.4 nm (13.6 km) SE. Retrieved 2019-12-12 00:15 UTC (5 hours ago):

TAF COR MMMX 120208Z 1200/1306 26006KT 4SM HZ SCT020 BKN220 TX23/1221Z TN10/1212Z FM120400 35005KT P6SM HZ SCT220 BECMG 1211/1212 4SM BR HZ TEMPO 1212/1216 2SM BR HZ FM121700 34005KT 4SM HZ BKN220 FM122100 03010KT 5SM HZ SCT020 SCT080 BKN220 FM130300 34006KT 6SM HZ SCT080 BKN220